Time;durP1;ratioP1;P1;durP2;ratioP2;P2;SDS_P1;SDS_P2;PMS_P1;PMS_P2;Temp;Humidity;BMP_temperature;BMP_pressure;BME280_temperature;BME280_humidity;BME280_pressure;Samples;Min_cycle;Max_cycle;Signal;HPM_P1;HPM_P2
2021/03/04 00:00:01;;;;;;;142.10;41.92;;;4.70;99.90;;;;;;5011221;28;20029;-73
2021/03/04 00:02:27;;;;;;;147.98;40.90;;;4.80;99.90;;;;;;5011804;28;20022;-73
2021/03/04 00:04:52;;;;;;;161.63;43.92;;;4.80;99.90;;;;;;5011541;28;20041;-73
2021/03/04 00:07:18;;;;;;;153.15;40.67;;;4.80;99.90;;;;;;5011120;28;20048;-73
2021/03/04 00:09:43;;;;;;;143.20;41.65;;;4.70;99.90;;;;;;5011849;28;20029;-73
2021/03/04 00:12:09;;;;;;;160.98;41.17;;;4.80;99.90;;;;;;5011815;28;20065;-73
2021/03/04 00:14:35;;;;;;;146.05;42.20;;;4.80;99.90;;;;;;5010899;28;20119;-73
2021/03/04 00:17:00;;;;;;;130.00;40.45;;;4.80;99.90;;;;;;5011907;28;20092;-73
2021/03/04 00:19:26;;;;;;;127.60;37.90;;;4.80;99.90;;;;;;5011971;28;20428;-73
2021/03/04 00:21:51;;;;;;;124.22;38.15;;;4.80;99.90;;;;;;5011044;28;20036;-72
2021/03/04 00:24:17;;;;;;;138.02;39.63;;;4.80;99.90;;;;;;5011794;28;20041;-73
2021/03/04 00:26:43;;;;;;;132.70;40.45;;;4.80;99.90;;;;;;5014928;28;20018;-74
2021/03/04 00:29:15;;;;;;;149.93;42.72;;;4.80;99.90;;;;;;5015342;28;20034;-74
2021/03/04 00:31:40;;;;;;;145.02;41.17;;;4.80;99.90;;;;;;5002397;28;20109;-74
2021/03/04 00:34:07;;;;;;;154.20;43.17;;;4.80;99.90;;;;;;5014081;28;20125;-74
2021/03/04 00:36:33;;;;;;;137.85;38.85;;;4.80;99.90;;;;;;5000847;28;20045;-74
2021/03/04 00:38:59;;;;;;;185.52;41.58;;;4.80;99.90;;;;;;5014265;28;20093;-74
2021/03/04 00:41:25;;;;;;;150.30;39.78;;;4.80;99.90;;;;;;5013985;28;20034;-73
2021/03/04 00:43:51;;;;;;;128.93;40.42;;;4.80;99.90;;;;;;5014473;28;20038;-75
2021/03/04 00:46:16;;;;;;;151.02;43.45;;;4.70;99.90;;;;;;5014507;28;20018;-74
2021/03/04 00:48:42;;;;;;;142.95;42.33;;;4.70;99.90;;;;;;5013780;28;20025;-73
2021/03/04 00:51:07;;;;;;;147.52;43.92;;;4.70;99.90;;;;;;5014778;28;20473;-74
2021/03/04 00:53:33;;;;;;;165.63;44.88;;;4.70;99.90;;;;;;5014645;28;20490;-74
2021/03/04 00:56:01;;;;;;;162.48;44.10;;;4.70;99.90;;;;;;5013772;28;20108;-73
2021/03/04 00:58:27;;;;;;;194.38;48.10;;;4.70;99.90;;;;;;5014774;28;20036;-73
2021/03/04 01:00:53;;;;;;;170.43;46.47;;;4.70;99.90;;;;;;5016501;28;20018;-73
2021/03/04 01:03:18;;;;;;;214.80;47.75;;;4.70;99.90;;;;;;5014971;28;20132;-76
2021/03/04 01:05:44;;;;;;;197.50;49.42;;;4.70;99.90;;;;;;5020508;28;20029;-74
2021/03/04 01:08:10;;;;;;;228.38;47.85;;;4.70;99.90;;;;;;5016567;28;20029;-74
2021/03/04 01:10:38;;;;;;;175.55;46.42;;;4.70;99.90;;;;;;5013969;28;20022;-74
2021/03/04 01:13:04;;;;;;;181.23;48.42;;;4.70;99.90;;;;;;5014340;28;20025;-73
2021/03/04 01:15:31;;;;;;;168.45;47.25;;;4.70;99.90;;;;;;5014713;28;20034;-74
2021/03/04 01:17:57;;;;;;;161.98;44.88;;;4.70;99.90;;;;;;5013370;28;20417;-74
2021/03/04 01:20:23;;;;;;;148.63;41.97;;;4.70;99.90;;;;;;5014527;28;20030;-73
2021/03/04 01:22:49;;;;;;;135.43;41.45;;;4.70;99.90;;;;;;5014345;28;20532;-73
2021/03/04 01:25:16;;;;;;;143.10;41.30;;;4.60;99.90;;;;;;5014140;28;20486;-73
2021/03/04 01:27:42;;;;;;;142.30;39.53;;;4.60;99.90;;;;;;5014382;28;20042;-73
2021/03/04 01:30:10;;;;;;;134.25;38.33;;;4.60;99.90;;;;;;5013689;28;20341;-73
2021/03/04 01:32:39;;;;;;;140.52;41.63;;;4.60;99.90;;;;;;5014128;28;20482;-73
2021/03/04 01:35:06;;;;;;;162.25;43.30;;;4.50;99.90;;;;;;5013908;28;20521;-72
2021/03/04 01:37:32;;;;;;;163.48;44.10;;;4.50;99.90;;;;;;5013986;28;20041;-74
2021/03/04 01:39:58;;;;;;;184.35;45.60;;;4.50;99.90;;;;;;5013934;28;20474;-73
2021/03/04 01:42:23;;;;;;;191.63;49.97;;;4.40;99.90;;;;;;5014335;28;20021;-73
2021/03/04 01:44:49;;;;;;;181.55;47.67;;;4.50;99.90;;;;;;5013010;28;20038;-73
2021/03/04 01:47:16;;;;;;;186.80;46.80;;;4.50;99.90;;;;;;5014106;28;20108;-73
2021/03/04 01:49:42;;;;;;;203.27;52.70;;;4.50;99.90;;;;;;5013866;28;20512;-73
2021/03/04 01:52:08;;;;;;;201.43;54.03;;;4.50;99.90;;;;;;5013262;28;20030;-73
2021/03/04 01:54:34;;;;;;;198.18;49.92;;;4.50;99.90;;;;;;5013946;28;20486;-74
2021/03/04 01:57:01;;;;;;;208.68;49.78;;;4.50;99.90;;;;;;5012713;28;20064;-73
2021/03/04 01:59:27;;;;;;;213.00;47.47;;;4.50;99.90;;;;;;5000898;28;20040;-74
2021/03/04 02:01:52;;;;;;;179.32;46.20;;;4.50;99.90;;;;;;5013476;28;20378;-74
2021/03/04 02:04:18;;;;;;;198.05;47.80;;;4.40;99.90;;;;;;5013454;28;20120;-73
2021/03/04 02:07:12;;;;;;;205.63;51.08;;;4.50;99.90;;;;;;5013318;28;20021;-74
2021/03/04 02:09:40;;;;;;;200.63;49.58;;;4.40;99.90;;;;;;5013935;28;20045;-73
2021/03/04 02:12:29;;;;;;;193.15;49.67;;;4.50;99.90;;;;;;5013444;28;20026;-74
2021/03/04 02:15:01;;;;;;;222.90;51.13;;;4.50;99.90;;;;;;5001957;28;20081;-74
2021/03/04 02:17:32;;;;;;;245.20;55.00;;;4.50;99.90;;;;;;5013705;28;20034;-74
2021/03/04 02:20:06;;;;;;;223.05;54.30;;;4.50;99.90;;;;;;5012694;28;20100;-72
2021/03/04 02:22:47;;;;;;;229.55;50.55;;;4.50;99.90;;;;;;5013265;28;20072;-73
2021/03/04 02:25:28;;;;;;;221.30;52.13;;;4.50;99.90;;;;;;5013077;28;20088;-73
2021/03/04 02:27:55;;;;;;;231.60;57.08;;;4.50;99.90;;;;;;5012440;28;20022;-73
2021/03/04 02:30:29;;;;;;;229.00;49.63;;;4.50;99.90;;;;;;5013577;28;20425;-73
2021/03/04 02:33:01;;;;;;;204.07;50.08;;;4.50;99.90;;;;;;5012932;28;20056;-73
2021/03/04 02:35:33;;;;;;;219.57;56.08;;;4.50;99.90;;;;;;5012664;28;20033;-73
2021/03/04 02:38:08;;;;;;;226.98;54.70;;;4.50;99.90;;;;;;5013031;28;20041;-73
2021/03/04 02:40:42;;;;;;;215.15;50.28;;;4.50;99.90;;;;;;5012574;28;20117;-73
2021/03/04 02:43:11;;;;;;;227.25;54.70;;;4.50;99.90;;;;;;5013027;28;20034;-73
2021/03/04 02:45:37;;;;;;;229.35;54.03;;;4.50;99.90;;;;;;5013442;28;20032;-73
2021/03/04 02:48:04;;;;;;;212.77;51.03;;;4.50;99.90;;;;;;5012660;28;20033;-74
2021/03/04 02:50:31;;;;;;;236.77;53.15;;;4.50;99.90;;;;;;5014566;28;20068;-73
2021/03/04 02:52:58;;;;;;;229.65;53.85;;;4.40;99.90;;;;;;5014970;28;20097;-74
2021/03/04 02:55:25;;;;;;;265.23;56.15;;;4.40;99.90;;;;;;5014737;28;20034;-74
2021/03/04 02:57:52;;;;;;;251.90;57.13;;;5.00;99.90;;;;;;5014523;28;20026;-73
2021/03/04 03:00:28;;;;;;;328.33;58.05;;;4.40;99.90;;;;;;5013892;28;20026;-74
2021/03/04 03:02:57;;;;;;;279.77;55.83;;;4.40;99.90;;;;;;5013644;28;20095;-74
2021/03/04 03:05:29;;;;;;;251.02;54.97;;;4.40;99.90;;;;;;5012769;28;20026;-74
2021/03/04 03:07:55;;;;;;;250.25;57.20;;;4.40;99.90;;;;;;5013446;28;20022;-74
2021/03/04 03:10:21;;;;;;;254.30;55.00;;;4.40;99.90;;;;;;5012021;28;20470;-74
2021/03/04 03:12:48;;;;;;;266.13;58.67;;;4.40;99.90;;;;;;5012578;28;20022;-73
2021/03/04 03:15:16;;;;;;;258.60;55.35;;;4.40;99.90;;;;;;5012167;28;20125;-73
2021/03/04 03:17:44;;;;;;;248.27;58.17;;;4.40;99.90;;;;;;5012086;28;20030;-73
2021/03/04 03:20:15;;;;;;;262.77;55.88;;;4.40;99.90;;;;;;5011949;28;20393;-72
2021/03/04 03:22:41;;;;;;;235.40;54.30;;;4.40;99.90;;;;;;5011757;28;20434;-73
2021/03/04 03:25:09;;;;;;;236.27;53.38;;;4.40;99.90;;;;;;5011977;28;20084;-73
2021/03/04 03:27:35;;;;;;;263.23;50.10;;;4.50;99.90;;;;;;5010976;28;20112;-72
2021/03/04 03:30:04;;;;;;;236.20;51.95;;;4.50;99.90;;;;;;5011216;28;20194;-73
2021/03/04 03:32:31;;;;;;;231.93;53.10;;;4.50;99.90;;;;;;5012734;28;20425;-73
2021/03/04 03:34:59;;;;;;;207.13;47.80;;;4.50;99.90;;;;;;5012045;28;20018;-73
2021/03/04 03:37:26;;;;;;;208.23;49.53;;;4.40;99.90;;;;;;5011403;28;20486;-74
2021/03/04 03:39:53;;;;;;;200.05;47.20;;;4.40;99.90;;;;;;5012212;28;20085;-74
2021/03/04 03:42:20;;;;;;;202.40;46.53;;;4.40;99.90;;;;;;5011926;28;20037;-74
2021/03/04 03:44:47;;;;;;;197.27;46.25;;;4.40;99.90;;;;;;5011345;28;20040;-74
2021/03/04 03:47:15;;;;;;;208.52;50.00;;;4.40;99.90;;;;;;5011565;28;20072;-73
2021/03/04 03:49:41;;;;;;;213.90;48.70;;;4.40;99.90;;;;;;5012111;28;20133;-73
2021/03/04 03:52:07;;;;;;;212.25;48.97;;;4.40;99.90;;;;;;5010975;28;20037;-75
2021/03/04 03:54:34;;;;;;;204.15;49.08;;;4.50;99.90;;;;;;5011881;28;20068;-74
2021/03/04 03:57:00;;;;;;;242.23;52.60;;;4.50;99.90;;;;;;5011811;28;20060;-73
2021/03/04 03:59:27;;;;;;;228.70;52.95;;;4.50;99.90;;;;;;5012226;28;20040;-74
2021/03/04 04:01:53;;;;;;;226.55;53.05;;;4.50;99.90;;;;;;5016443;28;20021;-74
2021/03/04 04:04:19;;;;;;;236.75;53.80;;;4.50;99.90;;;;;;5015934;28;20076;-74
2021/03/04 04:06:45;;;;;;;214.60;52.17;;;4.50;99.90;;;;;;5015395;28;20018;-74
2021/03/04 04:09:11;;;;;;;232.63;53.60;;;4.50;99.90;;;;;;5015466;28;20101;-73
2021/03/04 04:11:37;;;;;;;208.30;53.30;;;4.60;99.90;;;;;;5016163;28;20033;-75
2021/03/04 04:14:03;;;;;;;214.93;51.88;;;4.60;99.90;;;;;;5014613;28;20493;-74
2021/03/04 04:16:29;;;;;;;218.48;50.30;;;4.60;99.90;;;;;;5001860;28;20038;-74
2021/03/04 04:18:56;;;;;;;223.82;49.08;;;4.50;99.90;;;;;;5014892;28;20052;-73
2021/03/04 04:21:22;;;;;;;202.60;50.03;;;4.60;99.90;;;;;;5015772;28;20044;-73
2021/03/04 04:23:51;;;;;;;210.98;51.60;;;4.50;99.90;;;;;;5015615;28;20115;-73
2021/03/04 04:26:18;;;;;;;215.68;52.50;;;4.50;99.90;;;;;;5015165;28;20028;-73
2021/03/04 04:28:44;;;;;;;235.65;54.33;;;4.50;99.90;;;;;;5015866;28;20034;-73
2021/03/04 04:31:10;;;;;;;193.02;48.38;;;4.50;99.90;;;;;;5015436;28;20474;-73
2021/03/04 04:33:36;;;;;;;227.00;50.83;;;4.50;99.90;;;;;;5014713;28;20391;-73
2021/03/04 04:36:01;;;;;;;204.15;49.40;;;4.50;99.90;;;;;;5015442;28;20029;-74
2021/03/04 04:38:27;;;;;;;217.07;50.92;;;4.50;99.90;;;;;;5015290;28;20104;-73
2021/03/04 04:40:53;;;;;;;205.98;49.85;;;4.50;99.90;;;;;;5014421;28;20022;-73
2021/03/04 04:43:18;;;;;;;209.00;48.40;;;4.50;99.90;;;;;;5015253;28;20042;-74
2021/03/04 04:45:47;;;;;;;216.32;51.80;;;4.50;99.90;;;;;;5015411;28;20021;-73
2021/03/04 04:48:13;;;;;;;197.57;48.70;;;4.50;99.90;;;;;;5014405;28;20026;-73
2021/03/04 04:50:39;;;;;;;199.85;48.00;;;4.50;99.90;;;;;;5016116;28;20032;-73
2021/03/04 04:53:04;;;;;;;206.32;48.65;;;4.50;99.90;;;;;;5023864;28;20077;-72
2021/03/04 04:55:30;;;;;;;169.93;44.65;;;4.40;99.90;;;;;;5015306;28;20026;-74
2021/03/04 04:57:56;;;;;;;182.05;47.85;;;4.40;99.90;;;;;;5016853;28;20022;-73
2021/03/04 05:00:23;;;;;;;174.05;43.05;;;4.30;99.90;;;;;;5014995;28;20065;-73
2021/03/04 05:02:49;;;;;;;161.77;40.70;;;4.30;99.90;;;;;;5015524;28;20034;-73
2021/03/04 05:05:15;;;;;;;169.52;45.58;;;4.30;99.90;;;;;;5016679;28;20049;-75
2021/03/04 05:07:40;;;;;;;175.65;46.95;;;4.30;99.90;;;;;;5016444;28;20014;-73
2021/03/04 05:10:08;;;;;;;183.30;46.10;;;4.30;99.90;;;;;;5013610;28;20045;-73
2021/03/04 05:12:34;;;;;;;180.07;46.85;;;4.20;99.90;;;;;;5014783;28;20064;-72
2021/03/04 05:14:59;;;;;;;174.57;46.03;;;4.20;99.90;;;;;;5013908;28;20430;-72
2021/03/04 05:17:27;;;;;;;192.75;47.50;;;4.20;99.90;;;;;;5014022;28;20029;-72
2021/03/04 05:19:53;;;;;;;172.90;47.00;;;4.20;99.90;;;;;;5014023;28;20029;-73
2021/03/04 05:22:19;;;;;;;190.35;47.63;;;4.20;99.90;;;;;;5013807;28;20101;-74
2021/03/04 05:24:45;;;;;;;202.38;48.13;;;4.20;99.90;;;;;;5014505;28;20033;-74
2021/03/04 05:27:10;;;;;;;187.32;49.65;;;4.20;99.90;;;;;;5014107;28;20026;-73
2021/03/04 05:29:36;;;;;;;163.05;46.65;;;4.20;99.90;;;;;;5013762;28;20060;-73
2021/03/04 05:32:01;;;;;;;171.18;43.97;;;4.20;99.90;;;;;;5013921;28;20371;-73
2021/03/04 05:34:27;;;;;;;161.80;44.38;;;4.20;99.90;;;;;;5014287;28;20367;-74
2021/03/04 05:36:53;;;;;;;164.95;47.88;;;4.20;99.90;;;;;;5013160;28;20104;-74
2021/03/04 05:39:18;;;;;;;177.05;45.70;;;4.10;99.90;;;;;;5014634;28;20356;-74
2021/03/04 05:41:44;;;;;;;169.80;45.33;;;4.20;99.90;;;;;;5014328;28;20030;-73
2021/03/04 05:44:10;;;;;;;174.85;46.22;;;4.10;99.90;;;;;;5013440;28;20034;-73
2021/03/04 05:46:36;;;;;;;163.77;45.22;;;4.20;99.90;;;;;;5014221;28;20390;-74
2021/03/04 05:49:03;;;;;;;168.18;45.78;;;4.20;99.90;;;;;;5013608;28;20026;-73
2021/03/04 05:51:37;;;;;;;171.43;46.70;;;4.20;99.90;;;;;;5013303;28;20040;-73
2021/03/04 05:54:05;;;;;;;164.80;46.88;;;4.20;99.90;;;;;;5013378;28;20021;-73
2021/03/04 05:56:31;;;;;;;169.25;44.95;;;4.20;99.90;;;;;;5013896;28;20026;-73
2021/03/04 05:59:02;;;;;;;171.20;46.78;;;4.20;99.90;;;;;;5010264;28;20156;-73
2021/03/04 06:01:29;;;;;;;170.48;46.05;;;4.20;99.90;;;;;;5003565;28;20367;-72
2021/03/04 06:03:56;;;;;;;149.45;43.22;;;4.30;99.90;;;;;;5013201;28;20065;-73
2021/03/04 06:06:22;;;;;;;150.27;44.35;;;4.30;99.90;;;;;;5013332;28;20049;-71
2021/03/04 06:08:47;;;;;;;134.32;41.30;;;4.30;99.90;;;;;;5013932;28;20084;-73
2021/03/04 06:11:13;;;;;;;138.07;43.42;;;4.30;99.90;;;;;;5011549;28;20022;-74
2021/03/04 06:13:39;;;;;;;134.80;40.88;;;4.30;99.90;;;;;;5011640;28;20077;-73
2021/03/04 06:16:05;;;;;;;114.50;37.13;;;4.30;99.90;;;;;;5012816;28;20068;-73
2021/03/04 06:18:41;;;;;;;123.45;39.20;;;4.30;99.90;;;;;;5014764;28;20033;-72
2021/03/04 06:21:21;;;;;;;106.43;38.20;;;4.30;99.90;;;;;;5012473;28;20025;-73
2021/03/04 06:23:48;;;;;;;104.68;39.42;;;4.30;99.90;;;;;;5012417;28;20033;-74
2021/03/04 06:26:36;;;;;;;114.10;38.35;;;4.30;99.90;;;;;;5011305;28;20049;-73
2021/03/04 06:29:16;;;;;;;99.93;36.83;;;4.30;99.90;;;;;;5011415;28;20092;-74
2021/03/04 06:31:42;;;;;;;109.03;36.47;;;4.30;99.90;;;;;;5011736;28;20428;-73
2021/03/04 06:34:21;;;;;;;103.30;35.80;;;4.20;99.90;;;;;;5010932;28;20026;-73
2021/03/04 06:36:57;;;;;;;96.38;34.83;;;4.30;99.90;;;;;;5011488;28;20382;-73
2021/03/04 06:39:22;;;;;;;101.10;36.05;;;4.20;99.90;;;;;;5012222;28;20030;-73
2021/03/04 06:41:59;;;;;;;95.95;34.35;;;4.20;99.90;;;;;;5011942;28;20520;-72
2021/03/04 06:44:24;;;;;;;91.65;33.58;;;4.30;99.90;;;;;;5011798;28;20034;-74
2021/03/04 06:46:50;;;;;;;100.20;35.65;;;4.20;99.90;;;;;;5011492;28;20458;-72
2021/03/04 06:49:15;;;;;;;101.40;37.45;;;4.20;99.90;;;;;;5007987;28;20600;-72
2021/03/04 06:51:45;;;;;;;100.60;36.55;;;4.30;99.90;;;;;;5011978;28;20018;-73
2021/03/04 06:54:24;;;;;;;114.72;38.28;;;4.20;99.90;;;;;;5013005;28;20382;-74
2021/03/04 06:56:51;;;;;;;98.30;35.80;;;4.30;99.90;;;;;;5011287;28;20084;-73
2021/03/04 06:59:16;;;;;;;100.05;35.00;;;4.30;99.90;;;;;;5013651;28;20014;-74
2021/03/04 07:01:42;;;;;;;106.95;34.17;;;4.30;99.90;;;;;;5012752;28;20052;-74
2021/03/04 07:04:15;;;;;;;109.78;36.63;;;4.30;99.90;;;;;;5012172;28;20390;-74
2021/03/04 07:06:45;;;;;;;92.28;33.55;;;4.30;99.90;;;;;;5015732;28;20030;-74
2021/03/04 07:09:11;;;;;;;93.70;33.40;;;4.20;99.90;;;;;;5012825;28;20493;-75
2021/03/04 07:11:37;;;;;;;100.82;33.53;;;4.20;99.90;;;;;;5012033;28;20033;-74
2021/03/04 07:14:06;;;;;;;91.55;33.83;;;4.20;99.90;;;;;;5012585;28;20152;-75
2021/03/04 07:16:45;;;;;;;86.80;32.67;;;4.20;99.90;;;;;;5011972;28;20088;-74
2021/03/04 07:19:14;;;;;;;91.05;32.00;;;4.20;99.90;;;;;;5011854;28;20528;-74
2021/03/04 07:21:48;;;;;;;93.85;33.65;;;4.20;99.90;;;;;;5011430;28;20037;-74
2021/03/04 07:24:13;;;;;;;95.22;35.63;;;4.30;99.90;;;;;;5006617;28;20433;-73
2021/03/04 07:26:40;;;;;;;93.90;32.72;;;4.20;99.90;;;;;;5011205;28;20025;-73
2021/03/04 07:29:08;;;;;;;103.10;34.33;;;4.30;99.90;;;;;;5010149;28;20033;-73
2021/03/04 07:31:34;;;;;;;101.30;33.20;;;4.30;99.90;;;;;;5011122;28;20532;-73
2021/03/04 07:34:02;;;;;;;87.68;31.13;;;4.20;99.90;;;;;;5010531;28;20065;-74
2021/03/04 07:36:28;;;;;;;95.82;31.55;;;4.30;99.90;;;;;;5023253;28;20040;-74
2021/03/04 07:38:59;;;;;;;94.55;30.80;;;4.30;99.90;;;;;;5010679;28;20026;-73
2021/03/04 07:41:38;;;;;;;;;;;4.30;99.90;;;;;;5011675;28;20029;-73
2021/03/04 07:44:04;;;;;;;95.95;32.90;;;4.30;99.90;;;;;;5009389;28;20333;-73
2021/03/04 07:46:43;;;;;;;89.85;30.98;;;4.30;99.90;;;;;;5010973;28;20362;-76
2021/03/04 07:49:09;;;;;;;86.10;31.77;;;4.40;99.90;;;;;;5008444;28;20026;-79
2021/03/04 07:51:48;;;;;;;95.78;31.35;;;4.40;99.90;;;;;;5009616;28;20121;-78
2021/03/04 07:54:25;;;;;;;90.30;30.15;;;4.40;99.90;;;;;;5009545;28;20065;-78
2021/03/04 07:57:05;;;;;;;93.43;32.88;;;4.40;99.90;;;;;;5010322;28;20425;-77
2021/03/04 07:59:30;;;;;;;95.97;32.13;;;4.40;99.90;;;;;;5009024;28;20026;-78
2021/03/04 08:01:58;;;;;;;89.03;29.95;;;4.50;99.90;;;;;;5011453;28;20080;-78
2021/03/04 08:04:25;;;;;;;102.25;33.60;;;4.50;99.90;;;;;;5011101;28;20512;-77
2021/03/04 08:06:52;;;;;;;98.60;31.77;;;4.50;99.90;;;;;;5011132;28;20377;-79
2021/03/04 08:09:27;;;;;;;90.65;32.55;;;4.50;99.90;;;;;;5011528;28;20028;-78
2021/03/04 08:12:12;;;;;;;86.78;31.33;;;4.60;99.90;;;;;;5009183;28;20036;-80
2021/03/04 08:14:40;;;;;;;96.32;30.80;;;4.60;99.90;;;;;;5010121;28;20494;-79
2021/03/04 08:17:06;;;;;;;87.97;30.15;;;4.70;99.90;;;;;;5011460;28;20505;-81
2021/03/04 08:19:34;;;;;;;90.63;31.38;;;4.70;99.90;;;;;;5010006;28;20105;-79
2021/03/04 08:22:03;;;;;;;94.57;30.55;;;4.70;99.90;;;;;;5011415;28;20377;-79
2021/03/04 08:24:29;;;;;;;104.75;36.70;;;4.70;99.90;;;;;;5009858;28;20120;-79
2021/03/04 08:26:58;;;;;;;103.63;32.78;;;4.60;99.90;;;;;;5010780;28;20097;-79
2021/03/04 08:29:25;;;;;;;97.40;33.08;;;4.60;99.90;;;;;;5011346;28;20048;-80
2021/03/04 08:31:54;;;;;;;96.85;31.50;;;4.60;99.90;;;;;;5011757;28;20022;-78
2021/03/04 08:34:19;;;;;;;96.95;34.00;;;4.60;99.90;;;;;;5011334;28;20060;-78
2021/03/04 08:36:50;;;;;;;100.35;32.22;;;4.60;99.90;;;;;;5011342;28;20022;-80
2021/03/04 08:39:18;;;;;;;89.15;28.88;;;4.60;99.90;;;;;;5008928;28;20104;-78
2021/03/04 08:41:45;;;;;;;97.55;30.45;;;4.60;99.90;;;;;;5011708;28;20029;-79
2021/03/04 08:44:16;;;;;;;86.57;28.20;;;4.70;99.90;;;;;;5011606;28;20414;-79
2021/03/04 08:46:42;;;;;;;;;;;4.70;99.90;;;;;;5014367;28;20072;-79
2021/03/04 08:49:08;;;;;;;91.82;29.05;;;4.60;99.90;;;;;;5015459;28;19911;-79
2021/03/04 08:51:44;;;;;;;89.85;28.27;;;4.70;99.90;;;;;;5016203;28;20474;-80
2021/03/04 08:54:29;;;;;;;93.63;30.88;;;4.70;99.90;;;;;;5015369;28;20026;-78
2021/03/04 08:57:05;;;;;;;90.63;29.23;;;4.80;99.90;;;;;;5014715;28;20041;-78
2021/03/04 08:59:32;;;;;;;92.85;28.92;;;4.80;99.90;;;;;;5015401;28;20442;-76
2021/03/04 09:01:59;;;;;;;84.95;31.15;;;4.80;99.90;;;;;;5014942;28;20377;-79
2021/03/04 09:04:27;;;;;;;104.63;31.27;;;4.70;99.90;;;;;;5016052;28;20069;-78
2021/03/04 09:06:53;;;;;;;95.43;30.98;;;4.80;99.90;;;;;;5015495;28;20022;-78
2021/03/04 09:09:20;;;;;;;93.97;30.25;;;4.70;99.90;;;;;;5014926;28;20042;-80
2021/03/04 09:11:48;;;;;;;91.85;29.40;;;4.70;99.90;;;;;;5015013;28;20046;-80
2021/03/04 09:14:15;;;;;;;95.82;27.67;;;4.70;99.90;;;;;;5013288;28;20049;-79
2021/03/04 09:16:49;;;;;;;96.68;28.70;;;4.70;99.90;;;;;;5013052;28;20037;-78
2021/03/04 09:19:29;;;;;;;85.93;29.05;;;4.70;99.90;;;;;;5014644;28;20036;-77
2021/03/04 09:22:09;;;;;;;94.93;26.40;;;4.70;99.90;;;;;;5013945;28;20014;-78
2021/03/04 09:24:37;;;;;;;103.53;29.58;;;4.70;99.90;;;;;;5015058;28;20081;-78
2021/03/04 09:27:07;;;;;;;111.38;30.40;;;4.70;99.90;;;;;;5014507;28;20029;-79
2021/03/04 09:29:33;;;;;;;112.07;31.10;;;4.70;99.90;;;;;;5014186;28;20124;-81
2021/03/04 09:32:01;;;;;;;107.90;31.65;;;4.60;99.90;;;;;;5014036;28;20257;-79
2021/03/04 09:34:32;;;;;;;113.78;31.33;;;4.60;99.90;;;;;;5014419;28;20033;-78
2021/03/04 09:37:22;;;;;;;101.40;29.40;;;4.50;99.90;;;;;;5013515;28;20026;-78
2021/03/04 09:39:49;;;;;;;103.78;29.30;;;4.50;99.90;;;;;;5014264;28;20037;-77
2021/03/04 09:42:17;;;;;;;104.00;28.17;;;4.50;99.90;;;;;;5014143;28;20017;-77
2021/03/04 09:44:57;;;;;;;101.45;29.42;;;4.50;99.90;;;;;;5013504;28;20041;-76
2021/03/04 09:47:30;;;;;;;98.20;27.67;;;4.50;99.90;;;;;;5013644;28;20421;-76
2021/03/04 09:49:58;;;;;;;109.50;31.38;;;4.50;99.90;;;;;;5012216;28;20055;-76
2021/03/04 09:52:24;;;;;;;102.80;29.92;;;4.60;99.90;;;;;;5012960;28;20370;-77
2021/03/04 09:54:50;;;;;;;99.78;28.92;;;4.60;99.90;;;;;;5013517;28;20056;-76
2021/03/04 09:57:19;;;;;;;90.55;29.10;;;4.60;99.90;;;;;;5013285;28;20022;-77
2021/03/04 09:59:49;;;;;;;91.55;27.60;;;4.60;99.90;;;;;;5014311;28;20022;-78
2021/03/04 10:02:16;;;;;;;78.05;26.05;;;4.70;99.90;;;;;;5013828;28;20026;-78
2021/03/04 10:05:03;;;;;;;81.47;25.83;;;4.70;99.90;;;;;;5013106;28;20512;-76
2021/03/04 10:07:31;;;;;;;85.88;27.35;;;4.80;99.90;;;;;;5011879;28;20038;-76
2021/03/04 10:09:58;;;;;;;96.32;31.45;;;4.80;99.90;;;;;;5010746;28;20462;-77
2021/03/04 10:12:23;;;;;;;88.10;26.95;;;4.80;99.90;;;;;;5013060;28;20478;-77
2021/03/04 10:14:53;;;;;;;81.90;27.23;;;4.80;99.90;;;;;;5013127;28;20049;-76
2021/03/04 10:17:19;;;;;;;88.13;26.88;;;4.80;99.90;;;;;;5013435;28;20593;-76
2021/03/04 10:19:45;;;;;;;78.75;25.35;;;4.70;99.90;;;;;;5011157;28;20036;-77
2021/03/04 10:22:11;;;;;;;89.88;26.40;;;4.80;99.90;;;;;;5013128;28;20370;-77
2021/03/04 10:24:37;;;;;;;78.20;25.70;;;4.80;99.90;;;;;;5012388;28;20496;-75
2021/03/04 10:27:04;;;;;;;73.40;24.95;;;4.90;99.90;;;;;;5013035;28;20026;-75
2021/03/04 10:29:30;;;;;;;74.45;25.00;;;4.90;99.90;;;;;;5013509;28;20034;-76
2021/03/04 10:31:56;;;;;;;68.43;24.05;;;5.00;99.90;;;;;;5012195;28;20018;-76
2021/03/04 10:34:22;;;;;;;70.10;22.27;;;5.10;99.90;;;;;;5013254;28;20026;-76
2021/03/04 10:36:48;;;;;;;70.13;24.55;;;5.10;99.90;;;;;;5013182;28;20409;-76
2021/03/04 10:39:15;;;;;;;63.75;23.45;;;5.10;99.90;;;;;;5000239;28;20033;-76
2021/03/04 10:41:42;;;;;;;55.72;21.27;;;5.10;99.90;;;;;;5012189;28;20017;-76
2021/03/04 10:44:10;;;;;;;54.67;20.15;;;5.20;99.90;;;;;;5012553;28;20038;-76
2021/03/04 10:46:35;;;;;;;53.13;19.30;;;5.10;99.90;;;;;;4998307;28;20466;-76
2021/03/04 10:49:01;;;;;;;55.63;21.17;;;5.10;99.90;;;;;;5011965;28;20045;-77
2021/03/04 10:51:27;;;;;;;51.10;20.08;;;5.10;99.90;;;;;;5011775;28;20417;-74
2021/03/04 10:53:52;;;;;;;48.55;17.30;;;5.00;99.90;;;;;;5003784;28;20027;-77
2021/03/04 10:56:18;;;;;;;52.03;18.83;;;5.10;99.90;;;;;;5005576;28;20117;-77
2021/03/04 10:58:43;;;;;;;50.53;18.77;;;5.10;99.90;;;;;;5011549;28;20034;-77
2021/03/04 11:01:09;;;;;;;47.33;18.35;;;5.10;99.90;;;;;;5010197;28;20030;-76
2021/03/04 11:03:34;;;;;;;46.22;18.48;;;5.10;99.90;;;;;;5012853;28;20026;-75
2021/03/04 11:06:00;;;;;;;45.55;15.80;;;5.10;99.90;;;;;;5013734;28;20026;-76
2021/03/04 11:08:25;;;;;;;29.92;12.70;;;5.20;99.90;;;;;;5012005;28;20029;-77
2021/03/04 11:10:51;;;;;;;27.15;12.00;;;5.20;99.90;;;;;;5012971;28;20041;-75
2021/03/04 11:13:17;;;;;;;27.33;12.38;;;5.20;99.90;;;;;;5013081;28;20022;-76
2021/03/04 11:15:43;;;;;;;26.27;11.38;;;5.20;99.90;;;;;;5012936;28;20044;-74
2021/03/04 11:18:12;;;;;;;26.55;11.07;;;5.20;99.90;;;;;;5017139;28;20166;-75
2021/03/04 11:20:37;;;;;;;25.67;12.00;;;5.30;99.90;;;;;;5018222;28;20061;-77
2021/03/04 11:23:03;;;;;;;14.57;7.35;;;5.30;99.90;;;;;;5015147;28;20034;-77
2021/03/04 11:25:29;;;;;;;14.93;7.97;;;5.30;99.90;;;;;;5012503;28;20084;-72
2021/03/04 11:27:54;;;;;;;11.15;6.35;;;5.20;99.90;;;;;;5010485;28;20057;-74
2021/03/04 11:30:21;;;;;;;14.88;7.13;;;5.30;99.90;;;;;;4999974;28;20031;-77
2021/03/04 11:32:46;;;;;;;13.15;7.78;;;5.30;99.90;;;;;;5006982;28;20037;-76
2021/03/04 11:35:12;;;;;;;13.23;7.22;;;5.20;99.90;;;;;;5011466;28;20014;-76
2021/03/04 11:37:37;;;;;;;13.40;7.28;;;5.20;99.90;;;;;;5012526;28;20084;-76
2021/03/04 11:40:04;;;;;;;14.05;8.38;;;5.10;99.90;;;;;;5012099;28;20125;-76
2021/03/04 11:42:33;;;;;;;16.02;8.48;;;5.10;99.90;;;;;;5013185;28;20052;-76
2021/03/04 11:44:59;;;;;;;19.95;10.00;;;5.10;99.90;;;;;;5011750;28;20038;-74
2021/03/04 11:47:25;;;;;;;15.52;8.82;;;5.10;99.90;;;;;;5012338;28;20021;-77
2021/03/04 11:49:53;;;;;;;17.48;9.80;;;5.00;99.90;;;;;;5011493;28;20038;-76
2021/03/04 11:52:19;;;;;;;15.98;9.25;;;4.90;99.90;;;;;;5011936;28;20033;-76
2021/03/04 11:54:45;;;;;;;18.30;8.95;;;5.00;99.90;;;;;;5012389;28;20072;-77
2021/03/04 11:57:11;;;;;;;14.98;8.50;;;5.00;99.90;;;;;;5011198;28;20025;-77
2021/03/04 11:59:36;;;;;;;15.38;8.93;;;5.00;99.90;;;;;;5012174;28;20030;-74
2021/03/04 12:02:02;;;;;;;17.55;9.63;;;5.00;99.90;;;;;;5011740;28;20466;-77
2021/03/04 12:04:29;;;;;;;15.15;8.30;;;5.00;99.90;;;;;;5011014;28;20037;-77
2021/03/04 12:06:55;;;;;;;15.27;10.07;;;5.00;99.90;;;;;;5011775;28;20018;-77
2021/03/04 12:09:20;;;;;;;13.85;9.48;;;5.00;99.90;;;;;;5012191;28;20026;-77
2021/03/04 12:11:48;;;;;;;18.65;9.35;;;5.10;99.90;;;;;;5011413;28;20439;-76
2021/03/04 12:14:15;;;;;;;15.07;9.60;;;5.20;99.90;;;;;;5011811;28;20065;-76
2021/03/04 12:16:40;;;;;;;13.63;9.90;;;5.30;99.90;;;;;;5011886;28;20018;-78
2021/03/04 12:19:06;;;;;;;13.57;8.25;;;5.30;99.90;;;;;;5011451;28;20032;-77
2021/03/04 12:21:32;;;;;;;14.13;9.75;;;5.40;99.90;;;;;;5014413;28;20026;-77
2021/03/04 12:23:57;;;;;;;15.40;8.35;;;5.40;99.90;;;;;;5015734;28;20072;-77
2021/03/04 12:26:25;;;;;;;12.18;8.40;;;5.40;99.90;;;;;;5015328;28;20053;-77
2021/03/04 12:28:51;;;;;;;11.65;8.60;;;5.50;99.90;;;;;;5015568;28;20141;-77
2021/03/04 12:31:16;;;;;;;11.93;8.80;;;5.60;99.90;;;;;;5014927;28;20109;-77
2021/03/04 12:33:42;;;;;;;12.80;8.18;;;5.60;99.90;;;;;;5015513;28;20022;-77
2021/03/04 12:36:08;;;;;;;10.80;7.78;;;5.70;99.90;;;;;;5015616;28;20034;-77